sensor_id;sensor_type;location;lat;lon;timestamp;pressure;altitude;pressure_sealevel;temperature;humidity
73518;BME280;61766;60.318;25.044;2023-05-29T00:01:49;101281.69;;;14.34;39.17
73518;BME280;61766;60.318;25.044;2023-05-29T00:04:14;101281.33;;;14.32;38.87
73518;BME280;61766;60.318;25.044;2023-05-29T00:06:39;101283.09;;;14.29;38.97
73518;BME280;61766;60.318;25.044;2023-05-29T00:09:05;101283.16;;;14.25;39.15
73518;BME280;61766;60.318;25.044;2023-05-29T00:11:30;101282.34;;;14.34;39.17
73518;BME280;61766;60.318;25.044;2023-05-29T00:13:55;101286.41;;;14.42;38.94
73518;BME280;61766;60.318;25.044;2023-05-29T00:16:21;101290.75;;;14.39;38.86
73518;BME280;61766;60.318;25.044;2023-05-29T00:18:46;101294.19;;;14.32;39.10
73518;BME280;61766;60.318;25.044;2023-05-29T00:21:11;101293.94;;;14.33;38.93
73518;BME280;61766;60.318;25.044;2023-05-29T00:23:36;101295.96;;;14.33;38.80
73518;BME280;61766;60.318;25.044;2023-05-29T00:26:01;101300.70;;;14.36;38.74
73518;BME280;61766;60.318;25.044;2023-05-29T00:28:26;101300.90;;;14.48;39.14
73518;BME280;61766;60.318;25.044;2023-05-29T00:30:51;101304.03;;;14.28;38.94
73518;BME280;61766;60.318;25.044;2023-05-29T00:33:17;101306.17;;;14.31;38.73
73518;BME280;61766;60.318;25.044;2023-05-29T00:35:42;101303.92;;;14.27;38.59
73518;BME280;61766;60.318;25.044;2023-05-29T00:38:08;101297.87;;;14.26;38.77
73518;BME280;61766;60.318;25.044;2023-05-29T00:40:33;101301.15;;;14.27;38.32
73518;BME280;61766;60.318;25.044;2023-05-29T00:42:58;101303.35;;;14.21;38.09
73518;BME280;61766;60.318;25.044;2023-05-29T00:45:23;101307.68;;;14.17;38.35
73518;BME280;61766;60.318;25.044;2023-05-29T00:47:48;101309.27;;;14.01;38.54
73518;BME280;61766;60.318;25.044;2023-05-29T00:50:14;101308.75;;;13.96;38.63
73518;BME280;61766;60.318;25.044;2023-05-29T00:52:40;101304.33;;;14.06;39.06
73518;BME280;61766;60.318;25.044;2023-05-29T00:55:05;101305.64;;;14.32;38.87
73518;BME280;61766;60.318;25.044;2023-05-29T00:57:30;101308.12;;;14.10;38.65
73518;BME280;61766;60.318;25.044;2023-05-29T00:59:56;101305.84;;;14.06;38.86
73518;BME280;61766;60.318;25.044;2023-05-29T01:02:20;101309.36;;;14.08;38.82
73518;BME280;61766;60.318;25.044;2023-05-29T01:04:45;101313.21;;;13.95;39.28
73518;BME280;61766;60.318;25.044;2023-05-29T01:07:10;101314.99;;;13.83;39.35
73518;BME280;61766;60.318;25.044;2023-05-29T01:09:35;101318.87;;;13.98;38.86
73518;BME280;61766;60.318;25.044;2023-05-29T01:12:08;101314.70;;;13.72;38.49
73518;BME280;61766;60.318;25.044;2023-05-29T01:14:32;101314.78;;;13.45;38.05
73518;BME280;61766;60.318;25.044;2023-05-29T01:16:58;101321.07;;;13.67;37.82
73518;BME280;61766;60.318;25.044;2023-05-29T01:19:23;101322.08;;;13.58;37.78
73518;BME280;61766;60.318;25.044;2023-05-29T01:21:52;101322.46;;;13.39;37.53
73518;BME280;61766;60.318;25.044;2023-05-29T01:24:14;101326.46;;;13.25;37.98
73518;BME280;61766;60.318;25.044;2023-05-29T01:26:47;101328.86;;;13.07;37.95
73518;BME280;61766;60.318;25.044;2023-05-29T01:29:00;101334.89;;;12.90;38.41
73518;BME280;61766;60.318;25.044;2023-05-29T01:31:25;101334.54;;;12.85;38.73
73518;BME280;61766;60.318;25.044;2023-05-29T01:33:52;101333.59;;;12.68;39.12
73518;BME280;61766;60.318;25.044;2023-05-29T01:36:12;101335.35;;;12.74;39.36
73518;BME280;61766;60.318;25.044;2023-05-29T01:38:38;101335.08;;;12.74;39.18
73518;BME280;61766;60.318;25.044;2023-05-29T01:41:03;101342.11;;;12.68;39.46
73518;BME280;61766;60.318;25.044;2023-05-29T01:43:29;101346.01;;;12.35;39.52
73518;BME280;61766;60.318;25.044;2023-05-29T01:45:53;101345.76;;;12.35;39.37
73518;BME280;61766;60.318;25.044;2023-05-29T01:48:18;101341.50;;;12.54;39.48
73518;BME280;61766;60.318;25.044;2023-05-29T01:50:43;101341.68;;;12.57;39.67
73518;BME280;61766;60.318;25.044;2023-05-29T01:53:09;101343.05;;;12.83;39.85
73518;BME280;61766;60.318;25.044;2023-05-29T01:55:33;101346.90;;;12.77;39.46
73518;BME280;61766;60.318;25.044;2023-05-29T01:57:59;101350.15;;;12.99;39.88
73518;BME280;61766;60.318;25.044;2023-05-29T02:00:23;101353.00;;;12.79;39.86
73518;BME280;61766;60.318;25.044;2023-05-29T02:02:48;101352.66;;;12.75;40.21
73518;BME280;61766;60.318;25.044;2023-05-29T02:05:14;101354.92;;;13.01;40.13
73518;BME280;61766;60.318;25.044;2023-05-29T02:07:39;101352.94;;;12.86;40.05
73518;BME280;61766;60.318;25.044;2023-05-29T02:10:04;101351.88;;;12.74;39.99
73518;BME280;61766;60.318;25.044;2023-05-29T02:12:29;101352.91;;;12.49;40.44
73518;BME280;61766;60.318;25.044;2023-05-29T02:14:54;101350.79;;;12.84;40.05
73518;BME280;61766;60.318;25.044;2023-05-29T02:17:19;101347.52;;;12.98;39.86
73518;BME280;61766;60.318;25.044;2023-05-29T02:19:44;101352.36;;;12.96;39.98
73518;BME280;61766;60.318;25.044;2023-05-29T02:22:10;101355.97;;;13.06;39.82
73518;BME280;61766;60.318;25.044;2023-05-29T02:24:35;101351.64;;;13.13;39.57
73518;BME280;61766;60.318;25.044;2023-05-29T02:27:00;101350.18;;;13.23;39.51
73518;BME280;61766;60.318;25.044;2023-05-29T02:29:25;101347.13;;;13.27;39.40
73518;BME280;61766;60.318;25.044;2023-05-29T02:31:51;101350.97;;;13.34;39.33
73518;BME280;61766;60.318;25.044;2023-05-29T02:34:16;101356.83;;;13.46;39.32
73518;BME280;61766;60.318;25.044;2023-05-29T02:36:41;101352.23;;;13.42;38.99
73518;BME280;61766;60.318;25.044;2023-05-29T02:39:06;101353.53;;;13.28;38.57
73518;BME280;61766;60.318;25.044;2023-05-29T02:41:32;101356.74;;;13.34;38.89
73518;BME280;61766;60.318;25.044;2023-05-29T02:43:57;101361.11;;;13.60;38.70
73518;BME280;61766;60.318;25.044;2023-05-29T02:46:21;101362.69;;;13.27;38.51
73518;BME280;61766;60.318;25.044;2023-05-29T02:48:47;101362.00;;;13.52;37.98
73518;BME280;61766;60.318;25.044;2023-05-29T02:51:12;101365.92;;;13.58;37.92
73518;BME280;61766;60.318;25.044;2023-05-29T02:53:37;101366.92;;;13.50;38.10
73518;BME280;61766;60.318;25.044;2023-05-29T02:56:02;101370.69;;;13.39;37.89
73518;BME280;61766;60.318;25.044;2023-05-29T02:58:27;101375.66;;;13.69;37.57
73518;BME280;61766;60.318;25.044;2023-05-29T03:00:52;101381.80;;;13.47;37.92
73518;BME280;61766;60.318;25.044;2023-05-29T03:03:17;101387.50;;;13.83;37.32
73518;BME280;61766;60.318;25.044;2023-05-29T03:05:42;101391.78;;;13.47;37.99
73518;BME280;61766;60.318;25.044;2023-05-29T03:08:07;101391.23;;;13.58;37.64
73518;BME280;61766;60.318;25.044;2023-05-29T03:10:33;101395.94;;;13.69;37.52
73518;BME280;61766;60.318;25.044;2023-05-29T03:12:58;101399.40;;;13.75;37.66
73518;BME280;61766;60.318;25.044;2023-05-29T03:15:23;101399.34;;;13.70;36.81
73518;BME280;61766;60.318;25.044;2023-05-29T03:17:48;101399.06;;;13.46;37.50
73518;BME280;61766;60.318;25.044;2023-05-29T03:20:13;101403.02;;;14.05;37.09
73518;BME280;61766;60.318;25.044;2023-05-29T03:22:38;101406.00;;;13.96;37.15
73518;BME280;61766;60.318;25.044;2023-05-29T03:25:04;101401.17;;;13.39;37.53
73518;BME280;61766;60.318;25.044;2023-05-29T03:27:28;101401.31;;;13.91;36.49
73518;BME280;61766;60.318;25.044;2023-05-29T03:29:53;101405.95;;;13.77;37.09
73518;BME280;61766;60.318;25.044;2023-05-29T03:32:18;101403.96;;;13.71;37.04
73518;BME280;61766;60.318;25.044;2023-05-29T03:34:43;101405.58;;;13.85;36.42
73518;BME280;61766;60.318;25.044;2023-05-29T03:37:08;101407.23;;;13.99;36.90
73518;BME280;61766;60.318;25.044;2023-05-29T03:39:33;101411.54;;;13.86;36.63
73518;BME280;61766;60.318;25.044;2023-05-29T03:41:59;101413.96;;;13.73;37.08
73518;BME280;61766;60.318;25.044;2023-05-29T03:44:23;101413.35;;;13.97;36.82
73518;BME280;61766;60.318;25.044;2023-05-29T03:46:49;101414.54;;;13.41;37.37
73518;BME280;61766;60.318;25.044;2023-05-29T03:49:15;101412.35;;;13.61;36.23
73518;BME280;61766;60.318;25.044;2023-05-29T03:51:39;101411.98;;;13.51;36.44
73518;BME280;61766;60.318;25.044;2023-05-29T03:54:04;101412.62;;;13.82;36.51
73518;BME280;61766;60.318;25.044;2023-05-29T03:56:29;101415.07;;;13.98;36.15
73518;BME280;61766;60.318;25.044;2023-05-29T03:58:54;101417.51;;;14.13;36.67
73518;BME280;61766;60.318;25.044;2023-05-29T04:01:19;101418.19;;;13.96;35.64
73518;BME280;61766;60.318;25.044;2023-05-29T04:03:44;101421.85;;;14.19;36.19
73518;BME280;61766;60.318;25.044;2023-05-29T04:06:09;101427.47;;;13.91;36.18
73518;BME280;61766;60.318;25.044;2023-05-29T04:08:34;101426.83;;;14.19;36.08
73518;BME280;61766;60.318;25.044;2023-05-29T04:10:59;101427.64;;;13.82;35.81
73518;BME280;61766;60.318;25.044;2023-05-29T04:13:24;101429.72;;;13.72;35.34
73518;BME280;61766;60.318;25.044;2023-05-29T04:15:49;101427.97;;;13.96;35.65
73518;BME280;61766;60.318;25.044;2023-05-29T04:18:14;101427.91;;;13.69;36.01
73518;BME280;61766;60.318;25.044;2023-05-29T04:20:39;101423.74;;;14.09;35.69
73518;BME280;61766;60.318;25.044;2023-05-29T04:23:04;101420.85;;;13.85;35.39
73518;BME280;61766;60.318;25.044;2023-05-29T04:25:29;101420.23;;;14.28;34.49
73518;BME280;61766;60.318;25.044;2023-05-29T04:27:54;101424.00;;;14.50;34.44
73518;BME280;61766;60.318;25.044;2023-05-29T04:30:19;101428.03;;;14.36;34.21
73518;BME280;61766;60.318;25.044;2023-05-29T04:32:44;101431.61;;;14.55;33.50
73518;BME280;61766;60.318;25.044;2023-05-29T04:35:09;101430.54;;;14.66;33.70
73518;BME280;61766;60.318;25.044;2023-05-29T04:37:35;101426.98;;;14.93;33.42
73518;BME280;61766;60.318;25.044;2023-05-29T04:39:59;101430.06;;;14.81;33.20
73518;BME280;61766;60.318;25.044;2023-05-29T04:42:24;101431.61;;;15.07;32.63
73518;BME280;61766;60.318;25.044;2023-05-29T04:44:49;101433.20;;;14.49;33.18
73518;BME280;61766;60.318;25.044;2023-05-29T04:47:14;101432.45;;;14.91;33.59
73518;BME280;61766;60.318;25.044;2023-05-29T04:49:39;101432.15;;;14.38;33.36
73518;BME280;61766;60.318;25.044;2023-05-29T04:52:05;101430.94;;;14.98;33.54
73518;BME280;61766;60.318;25.044;2023-05-29T04:54:29;101431.73;;;15.19;33.18
73518;BME280;61766;60.318;25.044;2023-05-29T04:56:55;101431.79;;;15.41;32.52
73518;BME280;61766;60.318;25.044;2023-05-29T04:59:21;101432.98;;;15.63;32.48
73518;BME280;61766;60.318;25.044;2023-05-29T05:01:46;101434.82;;;15.87;31.18
73518;BME280;61766;60.318;25.044;2023-05-29T05:04:12;101435.51;;;15.84;31.16
73518;BME280;61766;60.318;25.044;2023-05-29T05:06:38;101435.25;;;15.40;31.93
73518;BME280;61766;60.318;25.044;2023-05-29T05:09:04;101439.15;;;15.33;32.40
73518;BME280;61766;60.318;25.044;2023-05-29T05:11:30;101440.20;;;16.55;29.87
73518;BME280;61766;60.318;25.044;2023-05-29T05:13:55;101441.72;;;15.57;32.66
73518;BME280;61766;60.318;25.044;2023-05-29T05:16:21;101440.82;;;15.31;31.45
73518;BME280;61766;60.318;25.044;2023-05-29T05:18:47;101438.77;;;15.90;31.17
73518;BME280;61766;60.318;25.044;2023-05-29T05:21:13;101437.24;;;16.09;30.93
73518;BME280;61766;60.318;25.044;2023-05-29T05:23:39;101440.25;;;16.60;30.67
73518;BME280;61766;60.318;25.044;2023-05-29T05:26:05;101438.73;;;16.33;30.50
73518;BME280;61766;60.318;25.044;2023-05-29T05:28:30;101438.43;;;16.75;28.48
73518;BME280;61766;60.318;25.044;2023-05-29T05:30:56;101439.78;;;17.03;29.51
73518;BME280;61766;60.318;25.044;2023-05-29T05:33:21;101441.32;;;16.34;29.07
73518;BME280;61766;60.318;25.044;2023-05-29T05:35:47;101440.09;;;16.58;29.10
73518;BME280;61766;60.318;25.044;2023-05-29T05:38:13;101438.70;;;17.13;28.37
73518;BME280;61766;60.318;25.044;2023-05-29T05:40:39;101440.59;;;17.05;29.27
73518;BME280;61766;60.318;25.044;2023-05-29T05:43:05;101440.05;;;17.10;28.60
73518;BME280;61766;60.318;25.044;2023-05-29T05:45:31;101437.06;;;17.14;28.44
73518;BME280;61766;60.318;25.044;2023-05-29T05:47:57;101439.55;;;17.63;28.22
73518;BME280;61766;60.318;25.044;2023-05-29T05:50:22;101437.91;;;17.66;27.03
73518;BME280;61766;60.318;25.044;2023-05-29T05:52:48;101438.35;;;17.31;27.09
73518;BME280;61766;60.318;25.044;2023-05-29T05:55:15;101439.38;;;16.84;28.46
73518;BME280;61766;60.318;25.044;2023-05-29T05:57:40;101440.44;;;17.02;28.51
73518;BME280;61766;60.318;25.044;2023-05-29T06:00:06;101444.55;;;17.01;28.32
73518;BME280;61766;60.318;25.044;2023-05-29T06:02:31;101440.48;;;17.30;27.89
73518;BME280;61766;60.318;25.044;2023-05-29T06:04:57;101438.21;;;17.45;27.14
73518;BME280;61766;60.318;25.044;2023-05-29T06:07:23;101444.05;;;17.28;29.62
73518;BME280;61766;60.318;25.044;2023-05-29T06:09:49;101435.31;;;17.77;25.84
73518;BME280;61766;60.318;25.044;2023-05-29T06:12:15;101439.62;;;17.54;26.41
73518;BME280;61766;60.318;25.044;2023-05-29T06:14:40;101441.74;;;17.48;27.89
73518;BME280;61766;60.318;25.044;2023-05-29T06:17:06;101442.28;;;16.90;28.13
73518;BME280;61766;60.318;25.044;2023-05-29T06:19:32;101439.63;;;17.67;27.00
73518;BME280;61766;60.318;25.044;2023-05-29T06:21:57;101440.81;;;17.91;25.64
73518;BME280;61766;60.318;25.044;2023-05-29T06:24:23;101447.29;;;18.04;24.60
73518;BME280;61766;60.318;25.044;2023-05-29T06:26:49;101442.34;;;17.55;25.01
73518;BME280;61766;60.318;25.044;2023-05-29T06:29:15;101447.92;;;17.25;28.00
73518;BME280;61766;60.318;25.044;2023-05-29T06:31:41;101450.60;;;17.32;26.79
73518;BME280;61766;60.318;25.044;2023-05-29T06:34:07;101443.09;;;17.53;27.40
73518;BME280;61766;60.318;25.044;2023-05-29T06:36:32;101443.26;;;17.83;26.43
73518;BME280;61766;60.318;25.044;2023-05-29T06:38:58;101441.64;;;17.52;25.88
73518;BME280;61766;60.318;25.044;2023-05-29T06:41:24;101435.40;;;17.88;24.29
73518;BME280;61766;60.318;25.044;2023-05-29T06:43:49;101439.94;;;17.75;25.56
73518;BME280;61766;60.318;25.044;2023-05-29T06:46:15;101443.46;;;17.87;25.06
73518;BME280;61766;60.318;25.044;2023-05-29T06:48:41;101434.58;;;17.85;24.88
73518;BME280;61766;60.318;25.044;2023-05-29T06:51:07;101430.68;;;17.40;23.46
73518;BME280;61766;60.318;25.044;2023-05-29T06:53:34;101429.33;;;18.76;22.77
73518;BME280;61766;60.318;25.044;2023-05-29T06:55:58;101436.71;;;18.23;22.92
73518;BME280;61766;60.318;25.044;2023-05-29T06:58:24;101432.86;;;18.05;25.35
73518;BME280;61766;60.318;25.044;2023-05-29T07:00:50;101426.93;;;18.88;23.12
73518;BME280;61766;60.318;25.044;2023-05-29T07:03:16;101430.87;;;19.18;23.70
73518;BME280;61766;60.318;25.044;2023-05-29T07:05:41;101427.72;;;19.31;23.02
73518;BME280;61766;60.318;25.044;2023-05-29T07:08:07;101427.75;;;19.78;22.06
73518;BME280;61766;60.318;25.044;2023-05-29T07:10:33;101430.63;;;19.69;22.55
73518;BME280;61766;60.318;25.044;2023-05-29T07:12:59;101433.34;;;20.02;21.62
73518;BME280;61766;60.318;25.044;2023-05-29T07:15:25;101431.06;;;20.57;22.16
73518;BME280;61766;60.318;25.044;2023-05-29T07:17:50;101431.21;;;20.59;20.10
73518;BME280;61766;60.318;25.044;2023-05-29T07:20:16;101431.34;;;19.95;20.45
73518;BME280;61766;60.318;25.044;2023-05-29T07:22:42;101432.44;;;19.46;20.00
73518;BME280;61766;60.318;25.044;2023-05-29T07:25:08;101433.52;;;19.27;20.23
73518;BME280;61766;60.318;25.044;2023-05-29T07:27:33;101434.71;;;19.34;23.96
73518;BME280;61766;60.318;25.044;2023-05-29T07:29:59;101439.03;;;19.41;22.17
73518;BME280;61766;60.318;25.044;2023-05-29T07:32:25;101438.15;;;19.87;23.33
73518;BME280;61766;60.318;25.044;2023-05-29T07:34:51;101434.73;;;20.35;21.48
73518;BME280;61766;60.318;25.044;2023-05-29T07:37:16;101429.50;;;20.48;21.65
73518;BME280;61766;60.318;25.044;2023-05-29T07:39:42;101428.51;;;20.10;19.24
73518;BME280;61766;60.318;25.044;2023-05-29T07:42:08;101440.57;;;20.01;18.43
73518;BME280;61766;60.318;25.044;2023-05-29T07:44:33;101431.69;;;18.68;21.00
73518;BME280;61766;60.318;25.044;2023-05-29T07:46:59;101432.95;;;18.60;19.46
73518;BME280;61766;60.318;25.044;2023-05-29T07:49:25;101430.96;;;19.41;20.17
73518;BME280;61766;60.318;25.044;2023-05-29T07:51:51;101433.16;;;19.57;20.98
73518;BME280;61766;60.318;25.044;2023-05-29T07:54:17;101437.40;;;20.14;21.14
73518;BME280;61766;60.318;25.044;2023-05-29T07:56:42;101435.03;;;19.94;19.89
73518;BME280;61766;60.318;25.044;2023-05-29T07:59:08;101435.60;;;21.22;18.48
73518;BME280;61766;60.318;25.044;2023-05-29T08:01:34;101436.37;;;21.56;19.22
73518;BME280;61766;60.318;25.044;2023-05-29T08:03:59;101437.56;;;21.39;17.58
73518;BME280;61766;60.318;25.044;2023-05-29T08:06:25;101437.80;;;21.29;19.58
73518;BME280;61766;60.318;25.044;2023-05-29T08:08:51;101441.04;;;21.24;17.73
73518;BME280;61766;60.318;25.044;2023-05-29T08:11:17;101435.13;;;21.50;19.59
73518;BME280;61766;60.318;25.044;2023-05-29T08:13:42;101432.68;;;21.49;19.31
73518;BME280;61766;60.318;25.044;2023-05-29T08:16:08;101442.28;;;21.60;16.81
73518;BME280;61766;60.318;25.044;2023-05-29T08:18:34;101436.98;;;20.28;18.51
73518;BME280;61766;60.318;25.044;2023-05-29T08:20:59;101438.97;;;20.15;19.89
73518;BME280;61766;60.318;25.044;2023-05-29T08:23:25;101455.33;;;20.64;17.84
73518;BME280;61766;60.318;25.044;2023-05-29T08:25:51;101442.82;;;20.45;18.99
73518;BME280;61766;60.318;25.044;2023-05-29T08:28:16;101442.16;;;19.94;19.17
73518;BME280;61766;60.318;25.044;2023-05-29T08:30:43;101441.89;;;20.09;19.65
73518;BME280;61766;60.318;25.044;2023-05-29T08:33:08;101442.24;;;21.07;18.97
73518;BME280;61766;60.318;25.044;2023-05-29T08:35:34;101438.11;;;20.91;19.84
73518;BME280;61766;60.318;25.044;2023-05-29T08:37:59;101446.34;;;20.57;19.37
73518;BME280;61766;60.318;25.044;2023-05-29T08:40:25;101445.62;;;20.52;18.13
73518;BME280;61766;60.318;25.044;2023-05-29T08:42:55;101449.43;;;20.66;19.26
73518;BME280;61766;60.318;25.044;2023-05-29T08:45:19;101445.18;;;21.01;19.43
73518;BME280;61766;60.318;25.044;2023-05-29T08:47:43;101446.09;;;20.91;18.98
73518;BME280;61766;60.318;25.044;2023-05-29T08:50:08;101449.49;;;21.00;19.32
73518;BME280;61766;60.318;25.044;2023-05-29T08:52:34;101450.40;;;21.12;19.12
73518;BME280;61766;60.318;25.044;2023-05-29T08:55:00;101449.61;;;21.54;19.63
73518;BME280;61766;60.318;25.044;2023-05-29T08:57:26;101450.13;;;21.25;17.45
73518;BME280;61766;60.318;25.044;2023-05-29T08:59:51;101451.19;;;20.98;17.74
73518;BME280;61766;60.318;25.044;2023-05-29T09:02:16;101456.23;;;20.25;19.42
73518;BME280;61766;60.318;25.044;2023-05-29T09:04:42;101453.13;;;20.55;19.50
73518;BME280;61766;60.318;25.044;2023-05-29T09:07:08;101446.21;;;21.14;20.26
73518;BME280;61766;60.318;25.044;2023-05-29T09:09:34;101447.05;;;20.76;20.90
73518;BME280;61766;60.318;25.044;2023-05-29T09:11:59;101450.33;;;21.38;18.26
73518;BME280;61766;60.318;25.044;2023-05-29T09:14:35;101447.18;;;21.15;18.36
73518;BME280;61766;60.318;25.044;2023-05-29T09:16:51;101454.56;;;20.52;19.72
73518;BME280;61766;60.318;25.044;2023-05-29T09:19:16;101448.23;;;20.72;19.92
73518;BME280;61766;60.318;25.044;2023-05-29T09:21:42;101454.69;;;20.67;19.72
73518;BME280;61766;60.318;25.044;2023-05-29T09:24:08;101453.91;;;20.29;19.94
73518;BME280;61766;60.318;25.044;2023-05-29T09:26:34;101453.84;;;20.76;19.35
73518;BME280;61766;60.318;25.044;2023-05-29T09:28:59;101455.10;;;20.55;18.64
73518;BME280;61766;60.318;25.044;2023-05-29T09:31:25;101455.04;;;20.60;20.15
73518;BME280;61766;60.318;25.044;2023-05-29T09:33:51;101442.30;;;20.91;19.81
73518;BME280;61766;60.318;25.044;2023-05-29T09:36:20;101446.54;;;20.74;21.03
73518;BME280;61766;60.318;25.044;2023-05-29T09:38:46;101434.82;;;21.54;20.60
73518;BME280;61766;60.318;25.044;2023-05-29T09:41:08;101447.86;;;21.37;18.94
73518;BME280;61766;60.318;25.044;2023-05-29T09:43:34;101448.65;;;21.39;18.22
73518;BME280;61766;60.318;25.044;2023-05-29T09:46:01;101440.97;;;21.47;18.30
73518;BME280;61766;60.318;25.044;2023-05-29T09:48:26;101444.64;;;21.87;18.73
73518;BME280;61766;60.318;25.044;2023-05-29T09:50:51;101447.42;;;22.46;18.28
73518;BME280;61766;60.318;25.044;2023-05-29T09:53:17;101446.56;;;22.09;17.39
73518;BME280;61766;60.318;25.044;2023-05-29T09:55:42;101449.36;;;22.40;16.95
73518;BME280;61766;60.318;25.044;2023-05-29T09:58:08;101449.88;;;22.07;16.64
73518;BME280;61766;60.318;25.044;2023-05-29T10:00:34;101449.36;;;22.08;16.75
73518;BME280;61766;60.318;25.044;2023-05-29T10:02:59;101450.02;;;22.16;16.87
73518;BME280;61766;60.318;25.044;2023-05-29T10:05:25;101454.95;;;22.13;16.48
73518;BME280;61766;60.318;25.044;2023-05-29T10:07:53;101453.99;;;22.37;17.24
73518;BME280;61766;60.318;25.044;2023-05-29T10:10:19;101455.29;;;21.41;15.37
73518;BME280;61766;60.318;25.044;2023-05-29T10:12:48;101451.38;;;21.75;14.64
73518;BME280;61766;60.318;25.044;2023-05-29T10:15:12;101453.40;;;21.26;15.33
73518;BME280;61766;60.318;25.044;2023-05-29T10:17:35;101443.96;;;20.62;15.50
73518;BME280;61766;60.318;25.044;2023-05-29T10:20:01;101443.82;;;19.90;16.40
73518;BME280;61766;60.318;25.044;2023-05-29T10:22:26;101452.98;;;20.69;17.05
73518;BME280;61766;60.318;25.044;2023-05-29T10:24:51;101456.96;;;21.75;17.22
73518;BME280;61766;60.318;25.044;2023-05-29T10:27:17;101454.32;;;21.58;14.97
73518;BME280;61766;60.318;25.044;2023-05-29T10:29:46;101453.62;;;21.70;16.14
73518;BME280;61766;60.318;25.044;2023-05-29T10:32:17;101450.59;;;22.67;15.05
73518;BME280;61766;60.318;25.044;2023-05-29T10:34:39;101448.02;;;22.94;14.86
73518;BME280;61766;60.318;25.044;2023-05-29T10:37:04;101451.20;;;22.41;14.23
73518;BME280;61766;60.318;25.044;2023-05-29T10:39:25;101447.01;;;22.16;14.84
73518;BME280;61766;60.318;25.044;2023-05-29T10:41:50;101449.89;;;20.42;15.93
73518;BME280;61766;60.318;25.044;2023-05-29T10:49:15;101455.30;;;20.07;18.51
73518;BME280;61766;60.318;25.044;2023-05-29T10:51:39;101445.95;;;21.03;18.00
73518;BME280;61766;60.318;25.044;2023-05-29T10:54:00;101444.88;;;21.74;15.83
73518;BME280;61766;60.318;25.044;2023-05-29T10:56:29;101450.84;;;22.05;15.75
73518;BME280;61766;60.318;25.044;2023-05-29T10:58:54;101447.82;;;22.08;16.59
73518;BME280;61766;60.318;25.044;2023-05-29T11:01:16;101449.67;;;21.93;16.30
73518;BME280;61766;60.318;25.044;2023-05-29T11:03:42;101444.70;;;22.07;15.70
73518;BME280;61766;60.318;25.044;2023-05-29T11:06:17;101440.95;;;21.70;16.29
73518;BME280;61766;60.318;25.044;2023-05-29T11:08:34;101440.67;;;22.10;15.38
73518;BME280;61766;60.318;25.044;2023-05-29T11:10:59;101430.84;;;22.53;15.26
73518;BME280;61766;60.318;25.044;2023-05-29T11:13:30;101431.10;;;22.74;15.71
73518;BME280;61766;60.318;25.044;2023-05-29T11:16:05;101433.13;;;23.31;13.89
73518;BME280;61766;60.318;25.044;2023-05-29T11:18:20;101435.27;;;23.21;13.48
73518;BME280;61766;60.318;25.044;2023-05-29T11:20:45;101429.32;;;22.69;14.15
73518;BME280;61766;60.318;25.044;2023-05-29T11:23:08;101423.87;;;22.91;13.19
73518;BME280;61766;60.318;25.044;2023-05-29T11:25:35;101430.80;;;22.66;15.03
73518;BME280;61766;60.318;25.044;2023-05-29T11:27:59;101429.85;;;22.53;15.86
73518;BME280;61766;60.318;25.044;2023-05-29T11:30:25;101420.70;;;22.96;14.44
73518;BME280;61766;60.318;25.044;2023-05-29T11:32:52;101425.62;;;22.94;15.73
73518;BME280;61766;60.318;25.044;2023-05-29T11:35:17;101420.85;;;22.91;15.74
73518;BME280;61766;60.318;25.044;2023-05-29T11:37:43;101423.44;;;23.56;14.71
73518;BME280;61766;60.318;25.044;2023-05-29T11:40:09;101425.03;;;23.28;13.37
73518;BME280;61766;60.318;25.044;2023-05-29T11:42:33;101428.82;;;22.32;14.84
73518;BME280;61766;60.318;25.044;2023-05-29T11:45:11;101429.01;;;21.43;14.58
73518;BME280;61766;60.318;25.044;2023-05-29T11:47:24;101433.52;;;21.69;16.48
73518;BME280;61766;60.318;25.044;2023-05-29T11:49:50;101416.83;;;22.30;13.97
73518;BME280;61766;60.318;25.044;2023-05-29T11:52:16;101415.53;;;22.97;13.91
73518;BME280;61766;60.318;25.044;2023-05-29T11:54:41;101417.50;;;23.14;15.43
73518;BME280;61766;60.318;25.044;2023-05-29T11:57:08;101413.30;;;23.27;15.28
73518;BME280;61766;60.318;25.044;2023-05-29T11:59:33;101417.90;;;23.44;15.23
73518;BME280;61766;60.318;25.044;2023-05-29T12:02:01;101420.81;;;23.76;14.33
73518;BME280;61766;60.318;25.044;2023-05-29T12:04:24;101412.18;;;23.98;13.05
73518;BME280;61766;60.318;25.044;2023-05-29T12:06:50;101419.35;;;23.64;13.06
73518;BME280;61766;60.318;25.044;2023-05-29T12:09:26;101420.28;;;22.58;14.41
73518;BME280;61766;60.318;25.044;2023-05-29T12:11:41;101424.06;;;21.90;15.33
73518;BME280;61766;60.318;25.044;2023-05-29T12:14:07;101415.77;;;22.60;15.08
73518;BME280;61766;60.318;25.044;2023-05-29T12:16:34;101421.43;;;22.27;14.73
73518;BME280;61766;60.318;25.044;2023-05-29T12:18:59;101422.64;;;22.09;15.35
73518;BME280;61766;60.318;25.044;2023-05-29T12:21:24;101416.89;;;22.46;15.48
73518;BME280;61766;60.318;25.044;2023-05-29T12:23:52;101414.19;;;22.76;15.32
73518;BME280;61766;60.318;25.044;2023-05-29T12:26:15;101410.55;;;23.16;12.61
73518;BME280;61766;60.318;25.044;2023-05-29T12:28:44;101420.48;;;22.01;14.73
73518;BME280;61766;60.318;25.044;2023-05-29T12:31:07;101416.97;;;22.32;15.63
73518;BME280;61766;60.318;25.044;2023-05-29T12:33:33;101409.68;;;22.57;13.23
73518;BME280;61766;60.318;25.044;2023-05-29T12:36:03;101411.42;;;21.83;14.12